地図

経路データ

SID SEASON NUMBER BASIN SUBBASIN NAME ISO_TIME NATURE LAT LON WMO_WIND WMO_PRES WMO_AGENCY TRACK_TYPE DIST2LAND LANDFALL IFLAG USA_AGENCY USA_ATCF_ID USA_LAT USA_LON USA_RECORD USA_STATUS USA_WIND USA_PRES USA_SSHS USA_R34_NE USA_R34_SE USA_R34_SW USA_R34_NW USA_R50_NE USA_R50_SE USA_R50_SW USA_R50_NW USA_R64_NE USA_R64_SE USA_R64_SW USA_R64_NW USA_POCI USA_ROCI USA_RMW USA_EYE TOKYO_LAT TOKYO_LON TOKYO_GRADE TOKYO_WIND TOKYO_PRES TOKYO_R50_DIR TOKYO_R50_LONG TOKYO_R50_SHORT TOKYO_R30_DIR TOKYO_R30_LONG TOKYO_R30_SHORT TOKYO_LAND CMA_LAT CMA_LON CMA_CAT CMA_WIND CMA_PRES HKO_LAT HKO_LON HKO_CAT HKO_WIND HKO_PRES NEWDELHI_LAT NEWDELHI_LON NEWDELHI_GRADE NEWDELHI_WIND NEWDELHI_PRES NEWDELHI_CI NEWDELHI_DP NEWDELHI_POCI REUNION_LAT REUNION_LON REUNION_TYPE REUNION_WIND REUNION_PRES REUNION_TNUM REUNION_CI REUNION_RMW REUNION_R34_NE REUNION_R34_SE REUNION_R34_SW REUNION_R34_NW REUNION_R50_NE REUNION_R50_SE REUNION_R50_SW REUNION_R50_NW REUNION_R64_NE REUNION_R64_SE REUNION_R64_SW REUNION_R64_NW BOM_LAT BOM_LON BOM_TYPE BOM_WIND BOM_PRES BOM_TNUM BOM_CI BOM_RMW BOM_R34_NE BOM_R34_SE BOM_R34_SW BOM_R34_NW BOM_R50_NE BOM_R50_SE BOM_R50_SW BOM_R50_NW BOM_R64_NE BOM_R64_SE BOM_R64_SW BOM_R64_NW BOM_ROCI BOM_POCI BOM_EYE BOM_POS_METHOD BOM_PRES_METHOD NADI_LAT NADI_LON NADI_CAT NADI_WIND NADI_PRES WELLINGTON_LAT WELLINGTON_LON WELLINGTON_WIND WELLINGTON_PRES DS824_LAT DS824_LON DS824_STAGE DS824_WIND DS824_PRES TD9636_LAT TD9636_LON TD9636_STAGE TD9636_WIND TD9636_PRES TD9635_LAT TD9635_LON TD9635_WIND TD9635_PRES TD9635_ROCI NEUMANN_LAT NEUMANN_LON NEUMANN_CLASS NEUMANN_WIND NEUMANN_PRES MLC_LAT MLC_LON MLC_CLASS MLC_WIND MLC_PRES USA_GUST BOM_GUST BOM_GUST_PER REUNION_GUST REUNION_GUST_PER USA_SEAHGT USA_SEARAD_NE USA_SEARAD_SE USA_SEARAD_SW USA_SEARAD_NW STORM_SPEED STORM_DIR
1986206N11265 1986 67 EP MM FRANK 1986-07-24 18:00:00 TS 11.1000 -94.9000 25 hurdat_epa main 480 480 O_________O___ hurdat_epa EP061986 11.1000 -94.9000 TD 25 -1 11.1000 -94.9000 1 25 12 278
1986206N11265 1986 67 EP MM FRANK 1986-07-24 21:00:00 TS 11.1798 -95.4991 main 506 484 P_________P___ EP061986 11.1751 -95.4901 TD 25 -1 11.1938 -95.5262 1 25 12 280
1986206N11265 1986 67 EP MM FRANK 1986-07-25 00:00:00 TS 11.3000 -96.1000 25 hurdat_epa main 484 459 O_________O___ hurdat_epa EP061986 11.3000 -96.1000 TD 25 -1 11.3000 -96.1000 1 25 12 284
1986206N11265 1986 67 EP MM FRANK 1986-07-25 03:00:00 TS 11.4823 -96.6945 main 459 441 P_________P___ EP061986 11.5000 -96.7298 TD 25 -1 11.4293 -96.5885 1 25 12 288
1986206N11265 1986 67 EP MM FRANK 1986-07-25 06:00:00 TS 11.6694 -97.2348 25 hurdat_epa main 441 436 O_________P___ hurdat_epa EP061986 11.7000 -97.3000 TD 25 -1 11.5777 -97.0393 1 25 10 289
1986206N11265 1986 67 EP MM FRANK 1986-07-25 09:00:00 TS 11.7950 -97.6103 main 438 434 P_________P___ EP061986 11.8142 -97.6403 TD 25 -1 11.7373 -97.5205 1 25 9 285
1986206N11265 1986 67 EP MM FRANK 1986-07-25 12:00:00 TS 11.9000 -98.1000 25 hurdat_epa main 444 444 O_________O___ hurdat_epa EP061986 11.9000 -98.1000 TD 25 -1 11.9000 -98.1000 1 25 14 279
1986206N11265 1986 67 EP MM FRANK 1986-07-25 15:00:00 TS 12.0021 -99.0086 main 466 466 P_________P___ EP061986 11.9858 -99.0476 TD 25 -1 12.0511 -98.8915 1 25 19 277
1986206N11265 1986 67 EP MM FRANK 1986-07-25 18:00:00 TS 12.1254 -100.021 25 hurdat_epa main 493 490 O_________P___ hurdat_epa EP061986 12.1000 -100.100 TD 25 -1 12.2015 -99.7825 1 25 18 280
1986206N11265 1986 67 EP MM FRANK 1986-07-25 21:00:00 TS 12.3068 -100.848 main 506 501 P_________P___ EP061986 12.2920 -100.895 TD 25 -1 12.3510 -100.707 1 25 16 284
1986206N11265 1986 67 EP MM FRANK 1986-07-26 00:00:00 TS 12.5000 -101.600 25 hurdat_epa main 512 511 O_________O___ hurdat_epa EP061986 12.5000 -101.600 TD 25 -1 12.5000 -101.600 1 25 15 284
1986206N11265 1986 67 EP MM FRANK 1986-07-26 03:00:00 TS 12.6551 -102.316 main 527 527 P_________P___ EP061986 12.6572 -102.300 TD 25 -1 12.6487 -102.364 1 25 14 282
1986206N11265 1986 67 EP MM FRANK 1986-07-26 06:00:00 TS 12.7996 -103.022 25 hurdat_epa main 543 543 O_________P___ hurdat_epa EP061986 12.8000 -103.000 TD 25 -1 12.7983 -103.088 1 25 14 282
1986206N11265 1986 67 EP MM FRANK 1986-07-26 09:00:00 TS 12.9496 -103.755 main 571 561 P_________P___ EP061986 12.9498 -103.743 TD 25 -1 12.9488 -103.793 1 25 15 282
1986206N11265 1986 67 EP MM FRANK 1986-07-26 12:00:00 TS 13.1000 -104.500 25 hurdat_epa main 585 581 O_________O___ hurdat_epa EP061986 13.1000 -104.500 TD 25 -1 13.1000 -104.500 1 25 15 282
1986206N11265 1986 67 EP MM FRANK 1986-07-26 15:00:00 TS 13.2538 -105.248 main 588 588 P_________P___ EP061986 13.2498 -105.250 TD 25 -1 13.2657 -105.243 1 25 15 282
1986206N11265 1986 67 EP MM FRANK 1986-07-26 18:00:00 TS 13.4073 -105.998 25 hurdat_epa main 610 609 O_________P___ hurdat_epa EP061986 13.4000 -106.000 TD 25 -1 13.4292 -105.992 1 25 15 282
1986206N11265 1986 67 EP MM FRANK 1986-07-26 21:00:00 TS 13.5625 -106.749 main 627 627 P_________P___ EP061986 13.5573 -106.750 TD 25 -1 13.5782 -106.746 1 25 15 281
1986206N11265 1986 67 EP MM FRANK 1986-07-27 00:00:00 TS 13.7000 -107.500 25 hurdat_epa main 669 669 O_________O___ hurdat_epa EP061986 13.7000 -107.500 TD 25 -1 13.7000 -107.500 1 25 15 280
1986206N11265 1986 67 EP MM FRANK 1986-07-27 03:00:00 TS 13.8113 -108.252 main 710 710 P_________P___ EP061986 13.8223 -108.250 TD 27 -1 13.7782 -108.259 1 26 15 277
1986206N11265 1986 67 EP MM FRANK 1986-07-27 06:00:00 TS 13.8823 -109.004 30 hurdat_epa main 743 743 O_________P___ hurdat_epa EP061986 13.9000 -109.000 TD 30 -1 13.8294 -109.016 1 27 15 273
1986206N11265 1986 67 EP MM FRANK 1986-07-27 09:00:00 TS 13.8969 -109.754 main 797 797 P_________P___ EP061986 13.9073 -109.750 TD 30 -1 13.8658 -109.765 1 28 15 271
1986206N11265 1986 67 EP MM FRANK 1986-07-27 12:00:00 TS 13.9000 -110.500 30 hurdat_epa main 848 848 O_________O___ hurdat_epa EP061986 13.9000 -110.500 TD 30 -1 13.9000 -110.500 1 30 15 272
1986206N11265 1986 67 EP MM FRANK 1986-07-27 15:00:00 TS 13.9462 -111.254 main 910 902 P_________P___ EP061986 13.9424 -111.265 TD 30 -1 13.9575 -111.222 1 30 14 274
1986206N11265 1986 67 EP MM FRANK 1986-07-27 18:00:00 TS 14.0035 -111.982 30 hurdat_epa main 956 956 O_________P___ hurdat_epa EP061986 14.0000 -112.000 TD 30 -1 14.0142 -111.930 1 30 14 275
1986206N11265 1986 67 EP MM FRANK 1986-07-27 21:00:00 TS 14.0588 -112.654 main 1006 1006 P_________P___ EP061986 14.0572 -112.665 TD 30 -1 14.0638 -112.622 1 30 13 274
1986206N11265 1986 67 EP MM FRANK 1986-07-28 00:00:00 TS 14.1000 -113.300 30 hurdat_epa main 1044 1044 O_________O___ hurdat_epa EP061986 14.1000 -113.300 TD 30 -1 14.1000 -113.300 1 30 13 272
1986206N11265 1986 67 EP MM FRANK 1986-07-28 03:00:00 TS 14.1069 -113.954 main 1070 1070 P_________P___ EP061986 14.1073 -113.950 TD 32 -1 14.1055 -113.965 1 31 13 270
1986206N11265 1986 67 EP MM FRANK 1986-07-28 06:00:00 TS 14.0998 -114.604 35 hurdat_epa main 1097 1097 O_________P___ hurdat_epa EP061986 14.1000 -114.600 TS 35 0 14.0991 -114.615 1 32 13 269
1986206N11265 1986 67 EP MM FRANK 1986-07-28 09:00:00 TS 14.0925 -115.252 main 1131 1131 P_________P___ EP061986 14.0923 -115.250 TS 35 0 14.0931 -115.258 1 33 13 270
1986206N11265 1986 67 EP MM FRANK 1986-07-28 12:00:00 TS 14.1000 -115.900 35 hurdat_epa main 1164 1164 O_________O___ hurdat_epa EP061986 14.1000 -115.900 TS 35 0 14.1000 -115.900 2 35 13 272
1986206N11265 1986 67 EP MM FRANK 1986-07-28 15:00:00 TS 14.1375 -116.550 main 1205 1202 P_________P___ EP061986 14.1423 -116.550 TS 35 0 14.1229 -116.550 2 36 13 274
1986206N11265 1986 67 EP MM FRANK 1986-07-28 18:00:00 TS 14.1905 -117.200 35 hurdat_epa main 1233 1233 O_________P___ hurdat_epa EP061986 14.2000 -117.200 TS 35 0 14.1618 -117.200 2 37 13 275
1986206N11265 1986 67 EP MM FRANK 1986-07-28 21:00:00 TS 14.2366 -117.845 main 1273 1273 P_________P___ EP061986 14.2423 -117.843 TS 37 0 14.2198 -117.850 2 38 13 275
1986206N11265 1986 67 EP MM FRANK 1986-07-29 00:00:00 TS 14.3000 -118.500 40 hurdat_epa main 1313 1313 O_________O___ hurdat_epa EP061986 14.3000 -118.500 TS 40 0 14.3000 -118.500 2 40 13 277
1986206N11265 1986 67 EP MM FRANK 1986-07-29 03:00:00 TS 14.3885 -119.195 main 1356 1356 P_________P___ EP061986 14.3850 -119.208 TS 42 0 14.3990 -119.158 2 43 14 279
1986206N11265 1986 67 EP MM FRANK 1986-07-29 06:00:00 TS 14.5049 -119.879 45 hurdat_epa main 1402 1402 O_________P___ hurdat_epa EP061986 14.5000 -119.900 TS 45 0 14.5195 -119.815 2 47 13 282
1986206N11265 1986 67 EP MM FRANK 1986-07-29 09:00:00 TS 14.6511 -120.502 main 1421 1421 P_________P___ EP061986 14.6497 -120.515 TS 50 0 14.6553 -120.464 2 51 12 284
1986206N11265 1986 67 EP MM FRANK 1986-07-29 12:00:00 TS 14.8000 -121.100 55 hurdat_epa main 1452 1452 O_________O___ hurdat_epa EP061986 14.8000 -121.100 TS 55 0 14.8000 -121.100 2 55 12 282
1986206N11265 1986 67 EP MM FRANK 1986-07-29 15:00:00 TS 14.8993 -121.701 main 1485 1485 P_________P___ EP061986 14.8923 -121.700 TS 57 0 14.9203 -121.703 2 56 12 280
1986206N11265 1986 67 EP MM FRANK 1986-07-29 18:00:00 TS 15.0128 -122.298 60 hurdat_epa main 1520 1520 O_________P___ hurdat_epa EP061986 15.0000 -122.300 TS 60 0 15.0513 -122.294 2 57 12 284
1986206N11265 1986 67 EP MM FRANK 1986-07-29 21:00:00 TS 15.1846 -122.891 main 1548 1548 P_________P___ EP061986 15.1773 -122.893 TS 60 0 15.2067 -122.888 2 58 12 288
1986206N11265 1986 67 EP MM FRANK 1986-07-30 00:00:00 TS 15.4000 -123.500 60 hurdat_epa main 1578 1578 O_________O___ hurdat_epa EP061986 15.4000 -123.500 TS 60 0 15.4000 -123.500 2 60 13 290
1986206N11265 1986 67 EP MM FRANK 1986-07-30 03:00:00 TS 15.6341 -124.143 main 1610 1610 P_________P___ EP061986 15.6349 -124.143 TS 62 0 15.6319 -124.145 2 62 14 292
1986206N11265 1986 67 EP MM FRANK 1986-07-30 06:00:00 TS 15.9000 -124.800 65 hurdat_epa main 1646 1646 O_________O___ hurdat_epa EP061986 15.9000 -124.800 HU 65 1 15.9000 -124.800 3 65 14 294
1986206N11265 1986 67 EP MM FRANK 1986-07-30 09:00:00 TS 16.2001 -125.436 main 1672 1670 P_________P___ EP061986 16.1997 -125.435 HU 65 1 16.2012 -125.440 3 65 14 296
1986206N11265 1986 67 EP MM FRANK 1986-07-30 12:00:00 TS 16.5000 -126.100 65 hurdat_epa main 1693 1693 O_________O___ hurdat_epa EP061986 16.5000 -126.100 HU 65 1 16.5000 -126.100 4 65 15 293
1986206N11265 1986 67 EP MM FRANK 1986-07-30 15:00:00 TS 16.7667 -126.833 main 1717 1717 P_________P___ EP061986 16.7724 -126.835 HU 65 1 16.7496 -126.828 4 65 15 289
1986206N11265 1986 67 EP MM FRANK 1986-07-30 18:00:00 TS 16.9904 -127.598 65 hurdat_epa main 1760 1760 O_________P___ hurdat_epa EP061986 17.0000 -127.600 HU 65 1 16.9618 -127.593 4 65 15 285
1986206N11265 1986 67 EP MM FRANK 1986-07-30 21:00:00 TS 17.1594 -128.364 main 1806 1806 P_________P___ EP061986 17.1649 -128.365 HU 65 1 17.1429 -128.362 4 65 15 282
1986206N11265 1986 67 EP MM FRANK 1986-07-31 00:00:00 TS 17.3000 -129.100 65 hurdat_epa main 1854 1854 O_________O___ hurdat_epa EP061986 17.3000 -129.100 HU 65 1 17.3000 -129.100 4 65 14 282
1986206N11265 1986 67 EP MM FRANK 1986-07-31 03:00:00 TS 17.4522 -129.770 main 1896 1896 P_________P___ EP061986 17.4572 -129.773 HU 65 1 17.4372 -129.762 4 67 13 283
1986206N11265 1986 67 EP MM FRANK 1986-07-31 06:00:00 TS 17.5890 -130.397 65 hurdat_epa main 1938 1938 O_________P___ hurdat_epa EP061986 17.6000 -130.400 HU 65 1 17.5560 -130.389 4 70 12 282
1986206N11265 1986 67 EP MM FRANK 1986-07-31 09:00:00 TS 17.6927 -131.005 main 1981 1981 P_________P___ EP061986 17.6997 -131.008 HU 70 1 17.6717 -130.996 4 72 12 280
1986206N11265 1986 67 EP MM FRANK 1986-07-31 12:00:00 TS 17.8000 -131.600 75 hurdat_epa main 2026 2026 O_________O___ hurdat_epa EP061986 17.8000 -131.600 HU 75 1 17.8000 -131.600 4 75 12 282
1986206N11265 1986 67 EP MM FRANK 1986-07-31 15:00:00 TS 17.9401 -132.201 main 2071 2071 P_________P___ EP061986 17.9347 -132.193 HU 75 1 17.9560 -132.225 4 75 12 285
1986206N11265 1986 67 EP MM FRANK 1986-07-31 18:00:00 TS 18.1067 -132.813 75 hurdat_epa main 2111 2111 O_________P___ hurdat_epa EP061986 18.1000 -132.800 HU 75 1 18.1267 -132.850 4 75 12 287
1986206N11265 1986 67 EP MM FRANK 1986-07-31 21:00:00 TS 18.2966 -133.456 main 2160 2160 P_________P___ EP061986 18.2924 -133.450 HU 75 1 18.3091 -133.475 4 75 13 288
1986206N11265 1986 67 EP MM FRANK 1986-08-01 00:00:00 TS 18.5000 -134.100 75 hurdat_epa main 2177 2112 O_________O___ hurdat_epa EP061986 18.5000 -134.100 HU 75 1 18.5000 -134.100 4 75 13 289
1986206N11265 1986 67 EP MM FRANK 1986-08-01 03:00:00 TS 18.6968 -134.707 main 2112 2047 P_________P___ EP061986 18.6997 -134.700 HU 70 1 18.6881 -134.725 4 72 12 289
1986206N11265 1986 67 EP MM FRANK 1986-08-01 06:00:00 TS 18.8960 -135.313 65 hurdat_epa main 2047 1983 O_________P___ hurdat_epa EP061986 18.9000 -135.300 HU 65 1 18.8842 -135.351 4 70 12 289
1986206N11265 1986 67 EP MM FRANK 1986-08-01 09:00:00 TS 19.0969 -135.951 main 1972 1908 P_________P___ EP061986 19.0998 -135.943 HU 65 1 19.0881 -135.976 4 67 13 288
1986206N11265 1986 67 EP MM FRANK 1986-08-01 12:00:00 TS 19.3000 -136.600 65 hurdat_epa main 1908 1843 O_________O___ hurdat_epa EP061986 19.3000 -136.600 HU 65 1 19.3000 -136.600 4 65 13 288
1986206N11265 1986 67 EP MM FRANK 1986-08-01 15:00:00 TS 19.4944 -137.246 main 1843 1780 P_________P___ EP061986 19.4923 -137.258 HU 57 0 19.5005 -137.210 4 56 13 288
1986206N11265 1986 67 EP MM FRANK 1986-08-01 18:00:00 TS 19.7028 -137.880 50 hurdat_epa main 1769 1716 O_________P___ hurdat_epa EP061986 19.7000 -137.900 TS 50 0 19.7110 -137.822 4 47 12 290
1986206N11265 1986 67 EP MM FRANK 1986-08-01 21:00:00 TS 19.9249 -138.482 main 1706 1643 P_________P___ EP061986 19.9196 -138.493 TS 40 0 19.9410 -138.448 4 38 13 293
1986206N11265 1986 67 EP MM FRANK 1986-08-02 00:00:00 TS 20.2000 -139.100 30 hurdat_epa main 1643 1581 O_________O___ hurdat_epa EP061986 20.2000 -139.100 TD 30 -1 20.2000 -139.100 1 30 14 298
1986206N11265 1986 67 EP MM FRANK 1986-08-02 03:00:00 TS 20.5739 -139.786 main 1570 1499 P_________P___ EP061986 20.5998 -139.777 TD 30 -1 20.4964 -139.812 1 30 15 299
1986206N11265 1986 67 EP CP FRANK 1986-08-02 06:00:00 TS 20.9283 -140.512 30 hurdat_epa main 1499 1429 O_________P___ hurdat_epa EP061986 21.0000 -140.500 TD 30 -1 20.8203 -140.550 1 30 15 295
1986206N11265 1986 67 EP CP FRANK 1986-08-02 09:00:00 TS 21.2013 -141.252 main 1419 1349 P_________P___ EP061986 21.2649 -141.251 TD 30 -1 21.1589 -141.287 1 30 15 291
1986206N11265 1986 67 EP CP FRANK 1986-08-02 12:00:00 TS 21.4526 -142.000 30 hurdat_epa main 1351 1282 O_________O___ hurdat_epa EP061986 21.5000 -142.000 TD 30 -1 21.5000 -142.000 1 30 15 290
1986206N11265 1986 67 EP CP FRANK 1986-08-02 15:00:00 TS 21.7074 -142.764 main 1272 1217 P_________P___ EP061986 21.7849 -142.730 TD 30 -1 21.8340 -142.668 1 30 15 292
1986206N11265 1986 67 EP CP FRANK 1986-08-02 18:00:00 TS 22.0122 -143.460 30 hurdat_epa main 1207 1166 O_________P___ hurdat_epa EP061986 22.1000 -143.400 TD 30 -1 22.1608 -143.299 1 30 14 301
1986206N11265 1986 67 EP CP FRANK 1986-08-02 21:00:00 TS 22.4004 -144.021 main 1166 1129 P_________P___ EP061986 22.4427 -143.977 TD 30 -1 22.4822 -143.905 1 30 13 311
1986206N11265 1986 67 EP CP FRANK 1986-08-03 00:00:00 TS 22.8400 -144.500 30 hurdat_epa main 1129 O_________O___ hurdat_epa EP061986 22.8000 -144.500 TD 30 -1 22.8000 -144.500 1 30 13 315

IBTrACS Databaseについて

本データベースは、米国NOAAが公開する1842年以降の世界の熱帯低気圧のベストトラックデータアーカイブInternational Best Track Archive for Climate Stewardship (IBTrACS)を、ウェブで閲覧しやすい形式に変換したものです。

最終更新日:2021-12-06